DLH346 EDDM-LOWS
Flight info
| Callsign | DLH346 |
|---|---|
| Flight time | N/A |
| Altitude | 11000 |
| Route | BIBAG3S/26L BIBAG T700 BADIT BADIT2R |
| Aircraft | A346/H-SDE2E3FGHIJ3J4J5M1RWXY/LB1D1 |
Departure
| Time | 2026-05-07 19:13 |
|---|---|
| Airport | Munich Airport (EDDM) |
Arrival
| Time | N/A |
|---|---|
| Airport | Salzburg Airport (LOWS) |
| Time | Latitude | Longitude | Altitude | Speed | Heading |
|---|---|---|---|---|---|
| 2026-05-07 18:45 | 48.35245 | 11.80041 | 1471 ft | 0 kts | 263° |
| 2026-05-07 19:00 | 48.35245 | 11.80049 | 1471 ft | 2 kts | 262° |
| 2026-05-07 19:00 | 48.35248 | 11.80072 | 1471 ft | 2 kts | 261° |
| 2026-05-07 19:01 | 48.35250 | 11.80090 | 1471 ft | 2 kts | 263° |
| 2026-05-07 19:01 | 48.35251 | 11.80109 | 1471 ft | 2 kts | 258° |
| 2026-05-07 19:01 | 48.35256 | 11.80129 | 1471 ft | 2 kts | 238° |
| 2026-05-07 19:01 | 48.35264 | 11.80145 | 1471 ft | 2 kts | 224° |
| 2026-05-07 19:02 | 48.35275 | 11.80158 | 1471 ft | 2 kts | 210° |
| 2026-05-07 19:02 | 48.35288 | 11.80166 | 1471 ft | 2 kts | 195° |
| 2026-05-07 19:02 | 48.35303 | 11.80170 | 1471 ft | 2 kts | 179° |
| 2026-05-07 19:02 | 48.35311 | 11.80169 | 1471 ft | 0 kts | 172° |
| 2026-05-07 19:06 | 48.35277 | 11.80173 | 1471 ft | 5 kts | 175° |
| 2026-05-07 19:06 | 48.35230 | 11.80180 | 1471 ft | 8 kts | 174° |
| 2026-05-07 19:07 | 48.35170 | 11.80188 | 1471 ft | 8 kts | 186° |
| 2026-05-07 19:07 | 48.35139 | 11.80134 | 1471 ft | 8 kts | 254° |
| 2026-05-07 19:07 | 48.35127 | 11.80037 | 1471 ft | 11 kts | 262° |
| 2026-05-07 19:07 | 48.35118 | 11.79913 | 1471 ft | 13 kts | 265° |
| 2026-05-07 19:08 | 48.35107 | 11.79771 | 1471 ft | 15 kts | 263° |
| 2026-05-07 19:08 | 48.35077 | 11.79666 | 1473 ft | 9 kts | 200° |
| 2026-05-07 19:08 | 48.35007 | 11.79667 | 1474 ft | 10 kts | 175° |
| 2026-05-07 19:08 | 48.34928 | 11.79679 | 1475 ft | 6 kts | 173° |
| 2026-05-07 19:09 | 48.34901 | 11.79684 | 1475 ft | 4 kts | 173° |
| 2026-05-07 19:09 | 48.34874 | 11.79689 | 1475 ft | 0 kts | 173° |
| 2026-05-07 19:09 | 48.34868 | 11.79690 | 1475 ft | 1 kts | 173° |
| 2026-05-07 19:09 | 48.34846 | 11.79694 | 1475 ft | 5 kts | 173° |
| 2026-05-07 19:10 | 48.34812 | 11.79706 | 1475 ft | 3 kts | 139° |
| 2026-05-07 19:10 | 48.34806 | 11.79753 | 1475 ft | 6 kts | 83° |
| 2026-05-07 19:10 | 48.34813 | 11.79834 | 1475 ft | 9 kts | 84° |
| 2026-05-07 19:10 | 48.34821 | 11.79947 | 1475 ft | 12 kts | 83° |
| 2026-05-07 19:11 | 48.34832 | 11.80082 | 1475 ft | 14 kts | 84° |
| 2026-05-07 19:11 | 48.34842 | 11.80237 | 1474 ft | 15 kts | 90° |
| 2026-05-07 19:11 | 48.34793 | 11.80371 | 1475 ft | 15 kts | 150° |
| 2026-05-07 19:11 | 48.34687 | 11.80403 | 1475 ft | 14 kts | 174° |
| 2026-05-07 19:12 | 48.34582 | 11.80416 | 1476 ft | 15 kts | 178° |
| 2026-05-07 19:12 | 48.34498 | 11.80415 | 1476 ft | 7 kts | 193° |
| 2026-05-07 19:12 | 48.34477 | 11.80357 | 1475 ft | 8 kts | 257° |
| 2026-05-07 19:12 | 48.34463 | 11.80237 | 1475 ft | 29 kts | 263° |
| 2026-05-07 19:13 | 48.34411 | 11.79556 | 1479 ft | 105 kts | 263° |
| 2026-05-07 19:13 | 48.34306 | 11.78205 | 1486 ft | 166 kts | 264° |
| 2026-05-07 19:13 | 48.34161 | 11.76387 | 1968 ft | 179 kts | 264° |
| 2026-05-07 19:13 | 48.34031 | 11.74610 | 2688 ft | 178 kts | 266° |
| 2026-05-07 19:14 | 48.33899 | 11.72772 | 3435 ft | 182 kts | 258° |
| 2026-05-07 19:14 | 48.33198 | 11.71294 | 3982 ft | 192 kts | 211° |
| 2026-05-07 19:14 | 48.31899 | 11.70833 | 4434 ft | 207 kts | 184° |
| 2026-05-07 19:14 | 48.30468 | 11.70895 | 4881 ft | 221 kts | 180° |
| 2026-05-07 19:15 | 48.28973 | 11.71020 | 5352 ft | 234 kts | 171° |
| 2026-05-07 19:15 | 48.27452 | 11.72006 | 5946 ft | 248 kts | 147° |
| 2026-05-07 19:15 | 48.26065 | 11.73440 | 6710 ft | 252 kts | 145° |
| 2026-05-07 19:15 | 48.24694 | 11.74915 | 7491 ft | 254 kts | 146° |
| 2026-05-07 19:16 | 48.23331 | 11.76425 | 8106 ft | 254 kts | 147° |
| 2026-05-07 19:16 | 48.21939 | 11.77914 | 8248 ft | 255 kts | 149° |
| 2026-05-07 19:16 | 48.20454 | 11.79361 | 8130 ft | 253 kts | 150° |
| 2026-05-07 19:16 | 48.19108 | 11.80953 | 8074 ft | 255 kts | 130° |
| 2026-05-07 19:17 | 48.18388 | 11.83268 | 8050 ft | 257 kts | 96° |
| 2026-05-07 19:17 | 48.18276 | 11.85899 | 8059 ft | 257 kts | 90° |
| 2026-05-07 19:17 | 48.18270 | 11.88581 | 8055 ft | 258 kts | 89° |
| 2026-05-07 19:17 | 48.18265 | 11.91275 | 8053 ft | 257 kts | 89° |
| 2026-05-07 19:18 | 48.18249 | 11.93919 | 8052 ft | 257 kts | 89° |
| 2026-05-07 19:18 | 48.18224 | 11.96588 | 8051 ft | 257 kts | 90° |
| 2026-05-07 19:18 | 48.18193 | 11.99246 | 8051 ft | 257 kts | 91° |
| 2026-05-07 19:18 | 48.18153 | 12.01905 | 8051 ft | 258 kts | 91° |
| 2026-05-07 19:19 | 48.18102 | 12.04572 | 8051 ft | 257 kts | 90° |
| 2026-05-07 19:19 | 48.18055 | 12.07173 | 8051 ft | 257 kts | 91° |
| 2026-05-07 19:19 | 48.18009 | 12.09780 | 8051 ft | 258 kts | 91° |
| 2026-05-07 19:19 | 48.17959 | 12.12451 | 8051 ft | 257 kts | 90° |
| 2026-05-07 19:20 | 48.17911 | 12.15029 | 8051 ft | 257 kts | 91° |
| 2026-05-07 19:20 | 48.17863 | 12.17712 | 8051 ft | 258 kts | 91° |
| 2026-05-07 19:20 | 48.17813 | 12.20379 | 8051 ft | 258 kts | 91° |
| 2026-05-07 19:20 | 48.17760 | 12.22935 | 8051 ft | 257 kts | 90° |
| 2026-05-07 19:21 | 48.17713 | 12.25584 | 8164 ft | 275 kts | 91° |
| 2026-05-07 19:21 | 48.17654 | 12.28511 | 8710 ft | 295 kts | 91° |
| 2026-05-07 19:21 | 48.17591 | 12.31586 | 9506 ft | 304 kts | 91° |
| 2026-05-07 19:21 | 48.17533 | 12.34787 | 10318 ft | 309 kts | 92° |
| 2026-05-07 19:22 | 48.17472 | 12.37904 | 10821 ft | 311 kts | 93° |
| 2026-05-07 19:22 | 48.17405 | 12.40924 | 11046 ft | 312 kts | 94° |
| 2026-05-07 19:22 | 48.17331 | 12.44177 | 11054 ft | 312 kts | 94° |